Time;durP1;ratioP1;P1;durP2;ratioP2;P2;SDS_P1;SDS_P2;PMS_P1;PMS_P2;Temp;Humidity;BMP_temperature;BMP_pressure;BME280_temperature;BME280_humidity;BME280_pressure;Samples;Min_cycle;Max_cycle;Signal;HPM_P1;HPM_P2
2023/05/22 00:01:31;;;;;;;;;17.00;17.00;;;;;22.44;39.33;101365.77;110241;1265;21482;-40
2023/05/22 00:03:58;;;;;;;;;22.00;19.00;;;;;22.43;39.39;101365.80;110261;1265;19142;-40
2023/05/22 00:06:26;;;;;;;;;21.00;18.00;;;;;22.42;39.43;101364.46;110254;1265;20689;-40
2023/05/22 00:08:53;;;;;;;;;24.00;22.00;;;;;22.43;39.39;101363.83;110259;1251;23530;-40
2023/05/22 00:11:21;;;;;;;;;18.00;17.00;;;;;22.42;39.12;101363.94;110246;1265;19977;-40
2023/05/22 00:13:48;;;;;;;;;19.00;18.00;;;;;22.41;39.27;101359.46;110264;1250;21042;-41
2023/05/22 00:16:16;;;;;;;;;17.00;17.00;;;;;22.42;39.21;101360.19;110237;1265;21684;-40
2023/05/22 00:18:43;;;;;;;;;21.00;19.50;;;;;22.41;39.11;101359.70;110281;1251;19219;-40
2023/05/22 00:21:10;;;;;;;;;20.00;18.50;;;;;22.40;39.16;101361.77;110256;1265;20933;-39
2023/05/22 00:23:38;;;;;;;;;17.00;15.00;;;;;22.39;39.03;101359.61;110256;1265;21691;-43
2023/05/22 00:26:06;;;;;;;;;22.00;21.00;;;;;22.39;39.23;101360.95;110296;1265;20231;-39
2023/05/22 00:28:33;;;;;;;;;21.00;18.00;;;;;22.39;38.88;101361.91;110273;1251;20865;-40
2023/05/22 00:31:01;;;;;;;;;22.00;21.00;;;;;22.39;39.10;101361.71;110262;1251;21603;-40
2023/05/22 00:33:28;;;;;;;;;24.50;21.00;;;;;22.39;39.08;101357.58;110269;1265;19681;-40
2023/05/22 00:35:55;;;;;;;;;18.00;18.00;;;;;22.37;38.97;101356.27;110265;1265;20836;-40
2023/05/22 00:38:23;;;;;;;;;21.50;18.50;;;;;22.37;39.04;101353.27;110279;1265;20310;-41
2023/05/22 00:40:50;;;;;;;;;20.00;18.00;;;;;22.36;39.24;101352.78;110263;1266;23657;-40
2023/05/22 00:43:18;;;;;;;;;22.00;18.00;;;;;22.36;39.14;101350.98;110267;1251;19457;-39
2023/05/22 00:45:46;;;;;;;;;17.50;17.00;;;;;22.36;39.25;101350.04;110098;1265;237226;-39
2023/05/22 00:48:14;;;;;;;;;22.00;19.00;;;;;22.35;39.30;101352.50;110261;1265;21508;-40
2023/05/22 00:50:41;;;;;;;;;22.00;21.00;;;;;22.35;39.22;101349.80;110268;1265;21996;-40
2023/05/22 00:53:09;;;;;;;;;18.00;18.00;;;;;22.34;39.24;101348.58;110263;1265;20002;-39
2023/05/22 00:55:36;;;;;;;;;22.00;19.00;;;;;22.34;39.33;101347.88;110281;1265;19201;-39
2023/05/22 00:58:06;;;;;;;;;18.00;16.33;;;;;22.34;39.31;101348.67;110265;1251;20942;-40
2023/05/22 01:00:34;;;;;;;;;21.00;17.00;;;;;22.33;39.28;101344.96;110295;1265;22488;-40
2023/05/22 01:03:02;;;;;;;;;21.00;19.50;;;;;22.33;39.22;101347.73;110239;1265;19976;-40
2023/05/22 01:05:29;;;;;;;;;22.00;19.00;;;;;22.32;39.39;101343.46;110291;1266;22111;-40
2023/05/22 01:07:57;;;;;;;;;21.00;17.67;;;;;22.31;39.50;101345.73;110258;1265;20108;-40
2023/05/22 01:10:24;;;;;;;;;22.00;18.00;;;;;22.30;39.45;101351.05;110266;1265;19216;-43
2023/05/22 01:12:52;;;;;;;;;20.50;18.00;;;;;22.30;39.55;101349.86;110298;1265;21628;-40
2023/05/22 01:15:19;;;;;;;;;18.50;17.00;;;;;22.30;39.59;101349.33;110258;1265;21507;-40
2023/05/22 01:17:47;;;;;;;;;17.67;17.00;;;;;22.29;39.65;101350.13;110269;1250;22833;-40
2023/05/22 01:20:14;;;;;;;;;22.00;19.00;;;;;22.28;39.76;101351.65;110282;1250;20618;-39
2023/05/22 01:22:42;;;;;;;;;21.00;19.00;;;;;22.27;39.83;101350.33;110264;1251;20147;-41
2023/05/22 01:25:10;;;;;;;;;30.50;25.00;;;;;22.27;39.97;101349.60;110273;1265;23128;-40
2023/05/22 01:27:38;;;;;;;;;18.50;18.50;;;;;22.27;40.07;101346.91;110257;1265;23543;-41
2023/05/22 01:30:06;;;;;;;;;23.00;21.00;;;;;22.27;40.03;101349.27;110280;1250;21548;-39
2023/05/22 01:32:33;;;;;;;;;28.00;21.50;;;;;22.26;40.26;101348.08;110260;1265;23560;-40
2023/05/22 01:35:00;;;;;;;;;23.50;22.00;;;;;22.26;40.51;101344.63;110238;1251;19429;-39
2023/05/22 01:37:28;;;;;;;;;22.00;21.00;;;;;22.25;40.55;101340.71;110269;1265;23023;-41
2023/05/22 01:39:55;;;;;;;;;22.00;21.00;;;;;22.25;40.74;101343.85;110231;1265;19977;-39
2023/05/22 01:42:23;;;;;;;;;22.00;21.00;;;;;22.25;40.96;101340.23;110301;1265;19419;-40
2023/05/22 01:44:50;;;;;;;;;27.00;24.00;;;;;22.25;41.05;101345.45;110284;1265;23193;-39
2023/05/22 01:47:18;;;;;;;;;21.00;21.00;;;;;22.24;41.11;101339.44;110262;1250;19979;-41
2023/05/22 01:49:46;;;;;;;;;25.00;19.00;;;;;22.24;41.22;101342.00;110274;1251;22903;-39
2023/05/22 01:52:13;;;;;;;;;27.50;25.50;;;;;22.23;41.29;101339.54;110287;1260;20510;-40
2023/05/22 01:54:41;;;;;;;;;24.00;21.00;;;;;22.23;41.38;101336.09;110275;1251;20016;-39
2023/05/22 01:57:08;;;;;;;;;22.00;22.00;;;;;22.23;41.38;101333.90;110254;1265;23007;-43
2023/05/22 01:59:36;;;;;;;;;21.00;20.00;;;;;22.22;41.51;101331.48;110258;1265;21480;-39
2023/05/22 02:02:03;;;;;;;;;22.00;19.00;;;;;22.22;41.56;101332.75;110237;1251;23427;-39
2023/05/22 02:04:31;;;;;;;;;23.50;21.00;;;;;22.21;41.51;101335.39;110274;1265;19448;-39
2023/05/22 02:06:58;;;;;;;;;23.50;23.00;;;;;22.20;41.67;101333.64;110274;1265;22147;-40
2023/05/22 02:09:26;;;;;;;;;19.50;19.50;;;;;22.20;41.56;101337.33;110282;1250;19965;-39
2023/05/22 02:11:53;;;;;;;;;23.00;21.00;;;;;22.20;41.55;101331.88;110276;1250;22991;-41
2023/05/22 02:14:21;;;;;;;;;21.50;21.00;;;;;22.20;41.48;101334.73;110276;1265;20268;-41
2023/05/22 02:16:49;;;;;;;;;24.33;21.00;;;;;22.19;41.43;101331.20;110264;1265;23048;-40
2023/05/22 02:19:17;;;;;;;;;23.50;21.00;;;;;22.19;41.27;101329.83;110276;1265;20310;-39
2023/05/22 02:21:44;;;;;;;;;20.50;19.00;;;;;22.18;41.38;101326.48;110283;1265;20089;-40
2023/05/22 02:24:12;;;;;;;;;20.00;20.00;;;;;22.18;41.37;101321.78;110269;1251;20442;-41
2023/05/22 02:26:39;;;;;;;;;21.00;18.00;;;;;22.17;41.34;101323.84;110253;1249;22955;-40
2023/05/22 02:29:07;;;;;;;;;21.00;21.00;;;;;22.16;41.37;101320.44;110300;1250;21478;-40
2023/05/22 02:31:34;;;;;;;;;24.00;22.00;;;;;22.16;41.22;101326.27;110227;1265;19121;-40
2023/05/22 02:34:04;;;;;;;;;22.50;20.50;;;;;22.16;41.37;101325.75;110244;1265;22043;-41
2023/05/22 02:36:32;;;;;;;;;22.00;20.00;;;;;22.15;41.29;101324.90;110270;1265;22941;-40
2023/05/22 02:38:59;;;;;;;;;20.00;19.00;;;;;22.15;41.26;101329.27;110177;1265;20134;-41
2023/05/22 02:41:26;;;;;;;;;22.00;21.00;;;;;22.14;41.29;101328.32;110140;1250;23013;-41
2023/05/22 02:43:54;;;;;;;;;21.50;20.00;;;;;22.13;41.28;101328.77;110170;1265;24776;-45
2023/05/22 02:46:21;;;;;;;;;24.50;24.00;;;;;22.13;41.44;101324.83;110204;1265;19274;-42
2023/05/22 02:48:49;;;;;;;;;24.00;22.00;;;;;22.13;41.37;101321.73;110263;1265;19645;-38
2023/05/22 02:51:16;;;;;;;;;27.50;24.50;;;;;22.11;41.51;101320.05;110247;1265;22974;-39
2023/05/22 02:53:44;;;;;;;;;24.67;23.00;;;;;22.11;41.46;101318.65;110246;1251;20358;-39
2023/05/22 02:56:11;;;;;;;;;24.00;22.00;;;;;22.11;41.68;101316.47;110249;1265;20785;-41
2023/05/22 02:58:39;;;;;;;;;22.00;21.00;;;;;22.11;41.55;101318.87;110299;1251;21656;-40
2023/05/22 03:01:07;;;;;;;;;24.00;22.00;;;;;22.10;41.57;101316.71;110267;1251;23625;-40
2023/05/22 03:03:35;;;;;;;;;24.00;23.00;;;;;22.10;41.83;101319.20;110275;1265;20846;-40
2023/05/22 03:06:03;;;;;;;;;29.00;24.50;;;;;22.09;41.67;101317.77;110257;1265;20086;-39
2023/05/22 03:08:30;;;;;;;;;25.00;24.00;;;;;22.08;41.84;101311.11;110276;1251;23121;-39
2023/05/22 03:10:57;;;;;;;;;25.00;22.00;;;;;22.08;41.79;101312.91;110284;1265;21029;-40
2023/05/22 03:13:25;;;;;;;;;27.00;24.00;;;;;22.09;41.67;101317.21;110258;1265;21736;-40
2023/05/22 03:15:52;;;;;;;;;24.00;22.00;;;;;22.08;41.79;101312.54;110274;1265;19279;-40
2023/05/22 03:18:20;;;;;;;;;23.00;23.00;;;;;22.08;41.77;101311.14;110255;1265;23708;-40
2023/05/22 03:20:48;;;;;;;;;26.33;26.33;;;;;22.08;41.79;101312.41;110259;1265;21361;-40
2023/05/22 03:23:16;;;;;;;;;22.50;21.00;;;;;22.07;41.96;101313.73;110255;1251;21334;-40
2023/05/22 03:25:44;;;;;;;;;24.50;23.00;;;;;22.06;41.83;101311.14;110269;1265;22994;-40
2023/05/22 03:28:11;;;;;;;;;28.00;27.00;;;;;22.07;41.83;101316.13;110240;1251;20248;-41
2023/05/22 03:30:39;;;;;;;;;27.00;25.50;;;;;22.06;41.93;101318.95;110282;1265;20207;-45
2023/05/22 03:33:06;;;;;;;;;22.00;21.00;;;;;22.05;42.23;101321.98;110264;1251;20865;-40
2023/05/22 03:35:34;;;;;;;;;29.00;27.00;;;;;22.05;42.16;101321.50;110269;1265;21640;-40
2023/05/22 03:38:01;;;;;;;;;25.00;22.00;;;;;22.05;42.27;101320.92;110282;1265;19970;-40
2023/05/22 03:40:28;;;;;;;;;23.50;21.50;;;;;22.05;42.36;101321.87;110254;1265;19816;-41
2023/05/22 03:42:56;;;;;;;;;25.00;24.00;;;;;22.05;42.55;101325.99;110256;1250;23003;-39
2023/05/22 03:45:24;;;;;;;;;25.00;22.00;;;;;22.04;42.55;101325.05;110257;1265;23007;-41
2023/05/22 03:47:51;;;;;;;;;25.50;22.50;;;;;22.05;42.60;101330.61;110260;1265;23019;-41
2023/05/22 03:50:19;;;;;;;;;25.00;24.00;;;;;22.04;42.69;101327.02;110245;1265;21396;-40
2023/05/22 03:52:46;;;;;;;;;27.00;25.00;;;;;22.04;42.93;101330.34;110314;1265;23653;-40
2023/05/22 03:55:15;;;;;;;;;21.50;20.50;;;;;22.04;42.99;101330.51;110330;1265;19614;-40
2023/05/22 03:57:42;;;;;;;;;26.00;25.00;;;;;22.04;43.05;101323.20;110313;1250;21554;-40
2023/05/22 04:00:10;;;;;;;;;31.50;30.00;;;;;22.03;43.00;101328.80;110280;1250;19267;-40
2023/05/22 04:02:38;;;;;;;;;22.00;22.00;;;;;22.03;43.05;101325.91;110294;1265;23411;-41
2023/05/22 04:05:06;;;;;;;;;28.00;25.00;;;;;22.02;43.12;101322.88;110294;1251;21640;-40
2023/05/22 04:07:33;;;;;;;;;31.00;27.00;;;;;22.02;42.94;101325.80;110297;1251;22823;-40
2023/05/22 04:10:01;;;;;;;;;24.00;22.50;;;;;22.02;43.19;101322.88;110303;1265;19431;-38
2023/05/22 04:12:28;;;;;;;;;28.00;24.50;;;;;22.03;43.36;101324.08;110209;1265;21492;-40
2023/05/22 04:14:55;;;;;;;;;25.33;23.67;;;;;22.01;43.19;101321.68;110267;1249;19979;-39
2023/05/22 04:17:23;;;;;;;;;23.33;22.00;;;;;22.02;43.02;101321.30;110243;1251;21291;-42
2023/05/22 04:19:50;;;;;;;;;24.50;21.50;;;;;22.02;42.96;101320.93;110259;1251;22775;-40
2023/05/22 04:22:18;;;;;;;;;24.67;23.33;;;;;22.02;42.92;101316.55;110260;1265;19152;-40
2023/05/22 04:24:47;;;;;;;;;21.00;21.00;;;;;22.01;42.86;101314.10;110276;1251;22708;-40
2023/05/22 04:27:15;;;;;;;;;25.50;24.50;;;;;22.01;42.94;101315.41;110291;1250;21811;-39
2023/05/22 04:29:43;;;;;;;;;20.00;18.00;;;;;22.01;42.87;101312.81;110258;1251;21237;-41
2023/05/22 04:32:11;;;;;;;;;24.00;20.50;;;;;22.01;42.91;101313.36;110243;1265;22962;-41
2023/05/22 04:34:40;;;;;;;;;28.67;28.00;;;;;22.01;42.80;101315.30;110251;1265;20298;-41
2023/05/22 04:37:08;;;;;;;;;27.00;22.00;;;;;22.02;42.79;101310.36;110233;1265;24314;-40
2023/05/22 04:39:36;;;;;;;;;28.00;25.00;;;;;22.02;42.33;101308.48;110263;1251;22660;-40
2023/05/22 04:42:04;;;;;;;;;30.00;22.00;;;;;22.04;42.40;101312.12;110215;1250;23076;-40
2023/05/22 04:44:33;;;;;;;;;22.00;22.00;;;;;22.04;42.48;101313.41;110302;1250;22784;-41
2023/05/22 04:47:00;;;;;;;;;24.00;22.00;;;;;22.03;42.40;101308.23;110205;1265;20986;-40
2023/05/22 04:49:28;;;;;;;;;22.33;20.67;;;;;22.03;42.36;101305.87;110262;1265;20156;-45
2023/05/22 04:51:56;;;;;;;;;24.00;21.00;;;;;22.04;42.15;101305.53;110280;1251;20086;-40
2023/05/22 04:54:24;;;;;;;;;22.00;21.00;;;;;22.04;42.21;101305.02;110250;1265;23495;-41
2023/05/22 04:56:51;;;;;;;;;24.67;22.67;;;;;22.06;42.17;101304.27;110274;1251;21492;-40
2023/05/22 04:59:22;;;;;;;;;21.50;21.00;;;;;22.07;42.17;101304.14;110266;1265;19159;-40
2023/05/22 05:01:49;;;;;;;;;21.00;21.00;;;;;22.08;42.11;101303.88;110225;1251;22991;-40
2023/05/22 05:04:17;;;;;;;;;27.00;22.00;;;;;22.06;42.11;101307.17;110196;1251;21554;-40
2023/05/22 05:06:45;;;;;;;;;20.00;20.00;;;;;21.94;41.70;101302.87;110198;1251;20113;-40
2023/05/22 05:09:12;;;;;;;;;22.00;22.00;;;;;21.83;41.62;101304.41;110233;1265;23740;-40
2023/05/22 05:11:40;;;;;;;;;21.00;20.00;;;;;21.69;41.65;101305.67;110205;1265;20412;-39
2023/05/22 05:14:07;;;;;;;;;18.67;18.00;;;;;21.67;41.62;101300.05;110232;1250;20973;-38
2023/05/22 05:16:35;;;;;;;;;21.00;18.00;;;;;21.69;41.68;101303.43;110238;1265;20765;-39
2023/05/22 05:19:02;;;;;;;;;24.00;21.00;;;;;21.57;41.92;101304.63;110228;1265;23118;-40
2023/05/22 05:21:30;;;;;;;;;20.00;18.00;;;;;21.39;42.03;101308.73;110259;1265;23510;-40
2023/05/22 05:23:57;;;;;;;;;20.00;18.00;;;;;21.41;42.40;101305.46;110256;1265;21070;-39
2023/05/22 05:26:26;;;;;;;;;23.00;20.00;;;;;21.51;42.39;101307.45;110270;1251;23176;-39
2023/05/22 05:28:55;;;;;;;;;20.00;20.00;;;;;21.57;42.35;101307.55;110254;1260;23723;-44
2023/05/22 05:31:23;;;;;;;;;57.00;48.50;;;;;21.55;42.49;101305.86;110191;1251;24302;-41
2023/05/22 05:33:50;;;;;;;;;33.50;33.00;;;;;21.43;43.16;101309.80;110190;1266;20302;-40
2023/05/22 05:36:18;;;;;;;;;36.50;35.50;;;;;21.37;43.39;101309.24;110194;1265;20298;-41
2023/05/22 05:38:45;;;;;;;;;42.50;40.50;;;;;21.41;43.64;101308.54;110219;1249;20829;-41
2023/05/22 05:41:13;;;;;;;;;46.50;42.50;;;;;21.56;43.61;101307.02;110195;1265;20127;-42
2023/05/22 05:43:40;;;;;;;;;33.00;33.00;;;;;21.48;43.87;101306.46;110205;1250;21995;-40
2023/05/22 05:46:08;;;;;;;;;36.50;35.00;;;;;21.47;43.61;101309.66;110272;1250;19450;-42
2023/05/22 05:48:35;;;;;;;;;32.00;30.00;;;;;21.54;43.06;101309.45;110212;1250;21786;-41
2023/05/22 05:51:03;;;;;;;;;31.00;29.50;;;;;21.63;42.85;101311.56;110236;1257;19917;-40
2023/05/22 05:53:31;;;;;;;;;27.00;24.00;;;;;21.63;42.74;101314.70;110154;1257;24516;-40
2023/05/22 05:55:59;;;;;;;;;24.00;23.00;;;;;21.73;42.66;101311.23;110134;1265;21780;-41
2023/05/22 05:58:26;;;;;;;;;24.00;20.00;;;;;21.78;42.31;101309.02;110219;1265;19936;-41
2023/05/22 06:00:53;;;;;;;;;21.00;20.00;;;;;21.76;42.45;101308.91;110184;1265;19475;-41
2023/05/22 06:03:21;;;;;;;;;17.00;17.00;;;;;21.61;42.70;101299.80;110174;1265;22686;-43
2023/05/22 06:05:50;;;;;;;;;23.00;20.00;;;;;21.50;42.87;101304.42;110188;1249;20001;-42
2023/05/22 06:08:18;;;;;;;;;22.00;19.00;;;;;21.53;42.97;101303.45;110178;1265;23439;-40
2023/05/22 06:10:46;;;;;;;;;17.00;16.50;;;;;21.51;43.06;101301.24;110187;1265;22987;-39
2023/05/22 06:13:13;;;;;;;;;17.00;16.50;;;;;21.53;42.93;101301.40;110192;1265;20814;-40
2023/05/22 06:15:41;;;;;;;;;18.00;16.50;;;;;21.59;42.71;101298.54;110204;1251;20917;-40
2023/05/22 06:18:08;;;;;;;;;19.50;17.00;;;;;21.64;43.08;101296.56;110202;1265;20439;-40
2023/05/22 06:20:36;;;;;;;;;17.00;16.00;;;;;21.62;43.00;101297.55;110247;1251;20161;-39
2023/05/22 06:23:03;;;;;;;;;13.67;13.67;;;;;21.60;42.99;101296.49;110145;1250;22978;-42
2023/05/22 06:25:30;;;;;;;;;17.00;16.00;;;;;21.65;43.00;101297.55;110213;1251;21519;-39
2023/05/22 06:27:58;;;;;;;;;17.50;17.00;;;;;21.69;42.85;101297.25;110189;1250;22831;-41
2023/05/22 06:30:25;;;;;;;;;15.00;15.00;;;;;21.71;42.76;101294.55;110178;1266;20754;-40
2023/05/22 06:32:53;;;;;;;;;17.00;17.00;;;;;21.69;43.04;101298.44;110183;1265;22823;-42
2023/05/22 06:35:20;;;;;;;;;15.00;15.00;;;;;21.69;42.85;101300.63;110194;1251;20048;-40
2023/05/22 06:37:48;;;;;;;;;15.33;15.00;;;;;21.79;42.75;101300.14;110170;1265;21889;-43
2023/05/22 06:40:15;;;;;;;;;16.50;15.50;;;;;21.86;42.96;101301.04;110103;1265;23527;-40
2023/05/22 06:42:43;;;;;;;;;17.00;16.00;;;;;21.91;42.96;101296.67;110091;1265;19929;-41
2023/05/22 06:45:10;;;;;;;;;15.00;14.00;;;;;21.94;42.59;101299.09;110095;1265;19651;-40
2023/05/22 06:47:38;;;;;;;;;16.33;15.00;;;;;21.97;42.46;101298.38;110105;1251;21445;-40
2023/05/22 06:50:05;;;;;;;;;18.00;18.00;;;;;22.03;42.39;101301.05;110201;1251;20190;-40
2023/05/22 06:52:32;;;;;;;;;17.00;16.00;;;;;22.04;42.14;101300.86;110221;1265;19518;-40
2023/05/22 06:55:04;;;;;;;;;11.00;10.00;;;;;22.12;42.44;101300.54;110210;1266;20302;-41
2023/05/22 06:57:31;;;;;;;;;15.00;15.00;;;;;22.19;42.47;101298.64;110180;1265;23531;-41
2023/05/22 06:59:59;;;;;;;;;15.00;14.00;;;;;22.18;42.45;101294.98;110248;1265;19810;-40
2023/05/22 07:02:26;;;;;;;;;14.00;13.00;;;;;22.19;42.43;101293.40;110203;1266;23406;-40
2023/05/22 07:04:54;;;;;;;;;12.00;12.00;;;;;22.24;42.40;101296.64;110216;1251;22661;-40
2023/05/22 07:07:22;;;;;;;;;15.00;14.00;;;;;22.26;42.14;101294.55;110259;1265;22719;-40
2023/05/22 07:09:49;;;;;;;;;14.00;14.00;;;;;22.25;42.14;101288.27;110274;1265;21434;-40
2023/05/22 07:12:17;;;;;;;;;14.50;14.00;;;;;22.22;42.18;101287.60;110259;1251;20225;-39
2023/05/22 07:14:44;;;;;;;;;13.00;12.00;;;;;22.17;41.90;101290.19;110241;1265;19437;-40
2023/05/22 07:17:12;;;;;;;;;17.00;15.00;;;;;22.21;41.94;101283.88;110205;1251;20075;-42
2023/05/22 07:19:39;;;;;;;;;15.00;14.00;;;;;22.23;41.49;101287.83;110190;1265;19184;-40
2023/05/22 07:22:07;;;;;;;;;17.00;15.00;;;;;22.15;41.27;101287.86;110215;1266;19474;-40
2023/05/22 07:24:34;;;;;;;;;14.00;12.50;;;;;22.18;41.07;101283.34;110202;1265;21900;-40
2023/05/22 07:27:03;;;;;;;;;11.00;11.00;;;;;22.25;41.00;101281.20;110176;1250;21620;-44
2023/05/22 07:29:30;;;;;;;;;11.00;11.00;;;;;22.36;40.99;101278.08;110199;1251;21002;-41
2023/05/22 07:31:58;;;;;;;;;11.00;11.00;;;;;22.44;40.86;101279.20;110177;1266;20258;-39
2023/05/22 07:34:30;;;;;;;;;11.00;11.00;;;;;22.49;40.62;101276.27;110222;1265;20214;-39
2023/05/22 07:36:58;;;;;;;;;11.00;11.00;;;;;22.49;40.49;101273.73;110235;1265;21117;-41
2023/05/22 07:39:25;;;;;;;;;11.00;11.00;;;;;22.40;40.32;101274.72;110276;1250;21601;-40
2023/05/22 07:41:53;;;;;;;;;12.00;12.00;;;;;22.34;40.31;101270.70;110246;1265;21618;-40
2023/05/22 07:44:20;;;;;;;;;14.50;13.00;;;;;22.44;40.51;101275.23;110265;1249;21246;-39
2023/05/22 07:46:48;;;;;;;;;11.00;11.00;;;;;22.51;40.30;101271.55;110145;1260;22838;-39
2023/05/22 07:49:18;;;;;;;;;12.00;12.00;;;;;22.51;40.30;101268.98;110236;1266;20004;-40
2023/05/22 07:51:46;;;;;;;;;11.00;11.00;;;;;22.52;39.82;101266.15;110247;1265;21487;-40
2023/05/22 07:54:13;;;;;;;;;11.00;11.00;;;;;22.49;39.78;101263.61;110212;1249;21586;-42
2023/05/22 07:56:41;;;;;;;;;11.00;11.00;;;;;22.49;39.74;101267.77;110199;1265;19303;-40
2023/05/22 07:59:10;;;;;;;;;11.00;11.00;;;;;22.48;39.62;101263.67;110195;1265;20745;-41
2023/05/22 08:01:38;;;;;;;;;10.00;9.00;;;;;22.49;39.47;101264.11;110173;1251;22363;-43
2023/05/22 08:04:05;;;;;;;;;27.00;22.00;;;;;22.50;39.78;101263.21;110161;1251;20024;-42
2023/05/22 08:06:33;;;;;;;;;45.50;37.00;;;;;22.54;39.68;101259.45;110248;1265;23083;-47
2023/05/22 08:09:03;;;;;;;;;51.67;41.00;;;;;22.60;39.56;101253.89;110225;1265;21832;-41
2023/05/22 08:11:30;;;;;;;;;42.00;38.50;;;;;22.69;39.60;101257.82;110302;1265;19329;-41
2023/05/22 08:13:58;;;;;;;;;61.00;48.00;;;;;22.72;39.41;101261.23;110243;1260;21166;-42
2023/05/22 08:16:25;;;;;;;;;36.00;31.00;;;;;22.68;39.48;101256.84;110193;1251;21642;-41
2023/05/22 08:18:53;;;;;;;;;29.00;26.00;;;;;22.77;39.74;101259.73;110247;1251;19342;-42
2023/05/22 08:21:20;;;;;;;;;21.00;21.00;;;;;22.80;39.52;101260.74;110151;1265;23698;-41
2023/05/22 08:23:47;;;;;;;;;18.00;16.50;;;;;22.74;39.61;101255.58;110187;1249;24302;-42
2023/05/22 08:26:15;;;;;;;;;19.00;18.00;;;;;22.72;39.56;101254.91;110181;1265;19266;-41
2023/05/22 08:28:43;;;;;;;;;15.00;14.50;;;;;22.69;39.34;101250.92;110156;1250;22984;-42
2023/05/22 08:31:11;;;;;;;;;15.00;14.00;;;;;22.75;39.54;101251.68;110200;1251;21833;-42
2023/05/22 08:33:38;;;;;;;;;21.00;12.00;;;;;22.74;39.51;101251.76;110175;1265;19211;-42
2023/05/22 08:36:06;;;;;;;;;14.00;14.00;;;;;22.78;39.44;101254.17;110134;1265;22277;-41
2023/05/22 08:38:33;;;;;;;;;11.33;11.00;;;;;22.76;39.25;101251.80;110178;1265;21434;-42
2023/05/22 08:41:00;;;;;;;;;11.67;9.00;;;;;22.81;38.79;101251.63;110132;1249;20276;-41
2023/05/22 08:43:28;;;;;;;;;12.00;11.50;;;;;22.82;38.69;101249.94;110189;1251;20723;-43
2023/05/22 08:45:56;;;;;;;;;10.00;9.00;;;;;22.78;38.38;101249.45;110233;1250;21841;-41
2023/05/22 08:48:24;;;;;;;;;9.00;9.00;;;;;22.75;37.98;101247.65;110182;1251;20423;-41
2023/05/22 08:50:55;;;;;;;;;10.33;9.00;;;;;22.77;37.94;101255.82;110206;1251;21261;-40
2023/05/22 08:53:24;;;;;;;;;5.00;5.00;;;;;22.78;37.60;101248.77;110207;1251;23237;-42
2023/05/22 08:55:52;;;;;;;;;8.00;8.00;;;;;22.73;37.49;101241.44;110227;1265;23693;-42
2023/05/22 08:58:19;;;;;;;;;8.00;8.00;;;;;22.80;37.42;101237.35;110229;1265;20626;-40
2023/05/22 09:00:47;;;;;;;;;11.50;11.50;;;;;22.91;37.20;101235.70;110212;1260;21956;-40
2023/05/22 09:03:14;;;;;;;;;8.00;8.00;;;;;22.98;36.84;101233.68;110157;1265;19584;-40
2023/05/22 09:05:42;;;;;;;;;8.33;8.00;;;;;22.98;36.74;101241.52;110211;1250;21010;-42
2023/05/22 09:08:09;;;;;;;;;9.00;8.00;;;;;22.85;35.89;101233.08;110180;1265;21692;-40
2023/05/22 09:10:37;;;;;;;;;9.00;8.00;;;;;22.85;35.57;101225.84;110274;1265;20836;-39
2023/05/22 09:13:06;;;;;;;;;7.00;7.00;;;;;22.86;35.69;101227.34;110269;1265;19342;-39
2023/05/22 09:15:34;;;;;;;;;8.00;8.00;;;;;22.86;35.59;101221.02;110242;1251;23160;-41
2023/05/22 09:18:01;;;;;;;;;8.00;8.00;;;;;22.90;35.71;101221.13;110209;1265;19541;-40
2023/05/22 09:20:28;;;;;;;;;9.00;8.00;;;;;22.87;35.52;101220.66;110291;1251;22132;-41
2023/05/22 09:22:56;;;;;;;;;9.00;9.00;;;;;22.83;35.77;101214.95;110237;1265;21498;-40
2023/05/22 09:25:25;;;;;;;;;7.67;7.00;;;;;22.82;35.85;101209.92;110246;1250;19214;-47
2023/05/22 09:27:52;;;;;;;;;8.00;8.00;;;;;22.86;35.58;101209.37;110240;1266;23510;-40
2023/05/22 09:30:20;;;;;;;;;9.00;8.50;;;;;22.84;35.69;101208.25;110237;1266;21362;-40
2023/05/22 09:32:47;;;;;;;;;10.00;9.00;;;;;22.82;35.58;101208.52;110217;1251;23850;-40
2023/05/22 09:35:15;;;;;;;;;7.00;7.00;;;;;22.78;35.58;101204.86;110233;1265;19389;-40
2023/05/22 09:37:42;;;;;;;;;9.00;9.00;;;;;22.82;35.56;101202.86;110240;1250;20280;-41
2023/05/22 09:40:10;;;;;;;;;9.00;9.00;;;;;22.88;35.51;101195.44;110250;1265;20437;-40
2023/05/22 09:42:37;;;;;;;;;11.00;9.00;;;;;22.90;35.45;101194.06;110254;1249;23520;-40
2023/05/22 09:45:05;;;;;;;;;9.00;9.00;;;;;22.88;35.52;101193.20;110234;1265;21479;-40
2023/05/22 09:47:33;;;;;;;;;9.00;8.00;;;;;22.90;35.42;101197.17;110167;1265;19218;-40
2023/05/22 09:50:02;;;;;;;;;8.00;8.00;;;;;22.84;35.49;101196.40;110197;1265;21745;-41
2023/05/22 09:52:30;;;;;;;;;8.00;8.00;;;;;22.82;35.88;101192.98;110184;1265;20115;-40
2023/05/22 09:54:58;;;;;;;;;8.00;8.00;;;;;22.86;35.94;101191.89;110180;1265;19589;-40
2023/05/22 09:57:26;;;;;;;;;8.00;8.00;;;;;22.89;35.83;101182.42;110202;1266;23124;-40
2023/05/22 09:59:56;;;;;;;;;8.00;8.00;;;;;22.92;35.56;101189.26;110248;1249;21532;-41
2023/05/22 10:02:23;;;;;;;;;7.00;7.00;;;;;22.90;35.79;101186.52;110155;1265;21103;-41
2023/05/22 10:04:51;;;;;;;;;9.00;8.00;;;;;22.90;35.50;101188.77;110194;1266;20830;-40
2023/05/22 10:07:18;;;;;;;;;8.00;8.00;;;;;22.91;35.24;101182.30;110115;1265;20135;-39
2023/05/22 10:09:46;;;;;;;;;8.00;8.00;;;;;22.90;35.63;101169.59;110154;1261;19640;-39
2023/05/22 10:12:15;;;;;;;;;8.50;8.00;;;;;22.93;35.76;101163.12;110237;1265;20858;-40
2023/05/22 10:14:42;;;;;;;;;8.00;7.50;;;;;23.08;35.65;101166.16;110221;1265;22966;-40
2023/05/22 10:17:11;;;;;;;;;8.00;8.00;;;;;23.08;35.49;101167.52;110225;1265;19770;-41
2023/05/22 10:19:38;;;;;;;;;8.00;7.00;;;;;22.98;35.28;101172.05;110203;1250;21647;-41
2023/05/22 10:22:06;;;;;;;;;8.00;8.00;;;;;22.91;35.09;101169.43;110231;1265;21793;-40
2023/05/22 10:24:33;;;;;;;;;8.00;7.00;;;;;22.89;34.87;101174.02;110258;1265;22340;-40
2023/05/22 10:27:00;;;;;;;;;8.00;8.00;;;;;22.90;34.80;101170.46;110211;1250;22349;-40
2023/05/22 10:29:28;;;;;;;;;8.00;7.00;;;;;22.88;34.66;101167.59;110264;1265;21693;-41
2023/05/22 10:31:55;;;;;;;;;8.00;7.50;;;;;22.91;34.79;101166.53;110233;1251;19517;-40
2023/05/22 10:34:23;;;;;;;;;9.00;9.00;;;;;22.90;34.80;101166.94;110232;1251;20996;-41
2023/05/22 10:36:50;;;;;;;;;7.00;7.00;;;;;22.88;34.73;101161.17;110247;1251;21905;-40
2023/05/22 10:39:18;;;;;;;;;8.50;8.50;;;;;22.87;34.93;101155.83;110229;1251;19316;-39
2023/05/22 10:41:45;;;;;;;;;8.00;8.00;;;;;22.88;34.78;101163.39;110244;1251;20778;-40
2023/05/22 10:44:12;;;;;;;;;7.00;7.00;;;;;22.86;34.99;101155.35;110216;1251;24031;-44
2023/05/22 10:46:40;;;;;;;;;8.00;8.00;;;;;22.84;35.02;101147.57;110206;1265;19572;-40
2023/05/22 10:49:07;;;;;;;;;8.00;8.00;;;;;22.85;35.06;101144.26;110232;1265;19315;-40
2023/05/22 10:51:35;;;;;;;;;9.00;8.00;;;;;22.82;35.14;101140.01;110219;1265;21592;-40
2023/05/22 10:54:04;;;;;;;;;10.00;8.00;;;;;22.78;35.05;101135.18;110269;1251;19621;-40
2023/05/22 10:56:31;;;;;;;;;5.00;5.00;;;;;22.83;35.04;101133.67;110268;1251;19448;-41
2023/05/22 10:59:01;;;;;;;;;8.00;7.67;;;;;22.85;35.23;101130.69;110196;1265;23643;-41
2023/05/22 11:01:28;;;;;;;;;8.00;8.00;;;;;22.85;35.43;101135.98;110249;1251;23507;-41
2023/05/22 11:03:56;;;;;;;;;11.00;9.00;;;;;22.86;35.30;101130.96;110288;1251;22070;-40
2023/05/22 11:06:23;;;;;;;;;8.00;7.00;;;;;22.88;35.34;101134.21;110240;1251;22968;-40